Time;durP1;ratioP1;P1;durP2;ratioP2;P2;SDS_P1;SDS_P2;PMS_P1;PMS_P2;Temp;Humidity;BMP_temperature;BMP_pressure;BME280_temperature;BME280_humidity;BME280_pressure;Samples;Min_cycle;Max_cycle;Signal;HPM_P1;HPM_P2
2021/06/26 00:02:16;;;;;;;2.57;0.90;;;17.10;99.90;;;;;;4767366;29;20209;-87
2021/06/26 00:04:39;;;;;;;1.53;0.50;;;16.80;1.00;;;;;;4764791;29;20190;-86
2021/06/26 00:07:03;;;;;;;1.17;0.50;;;16.90;1.00;;;;;;4764787;29;20565;-83
2021/06/26 00:09:26;;;;;;;0.73;0.27;;;;;;;;;;4765688;29;20216;-83
2021/06/26 00:11:49;;;;;;;1.53;0.60;;;16.70;1.00;;;;;;4773892;29;20255;-85
2021/06/26 00:14:12;;;;;;;2.27;0.90;;;;;;;;;;4764024;29;20684;-86
2021/06/26 00:16:35;;;;;;;1.70;0.70;;;16.60;1.00;;;;;;4748548;29;20206;-86
2021/06/26 00:18:57;;;;;;;1.30;0.60;;;;;;;;;;4779892;28;20196;-84
2021/06/26 00:21:20;;;;;;;2.77;1.13;;;;;;;;;;4783807;28;20184;-87
2021/06/26 00:23:44;;;;;;;0.77;0.40;;;16.30;1.00;;;;;;4751441;29;20202;-81
2021/06/26 00:26:07;;;;;;;0.93;0.40;;;;;;;;;;4782255;29;20240;-86
2021/06/26 00:28:29;;;;;;;1.07;0.53;;;16.00;1.00;;;;;;4783756;28;20276;-87
2021/06/26 00:30:54;;;;;;;1.50;0.70;;;16.30;1.00;;;;;;4782272;28;20212;-86
2021/06/26 00:33:17;;;;;;;3.30;1.30;;;16.40;1.00;;;;;;4782371;28;20653;-87
2021/06/26 00:35:39;;;;;;;0.80;0.40;;;16.30;1.00;;;;;;4782757;29;20185;-85
2021/06/26 00:38:02;;;;;;;1.37;0.57;;;16.10;1.00;;;;;;4782737;29;20223;-80
2021/06/26 00:40:26;;;;;;;2.80;1.03;;;15.80;1.00;;;;;;4783398;28;20200;-88
2021/06/26 00:42:49;;;;;;;0.73;0.37;;;;;;;;;;4782671;29;20196;-83
2021/06/26 00:45:14;;;;;;;3.20;1.20;;;15.30;1.00;;;;;;4783333;28;20184;-87
2021/06/26 00:47:37;;;;;;;1.27;0.50;;;15.60;1.00;;;;;;4782338;29;20224;-86
2021/06/26 00:50:00;;;;;;;0.83;0.43;;;15.90;1.00;;;;;;4775614;29;20771;-87
2021/06/26 00:52:22;;;;;;;2.47;0.93;;;15.90;1.00;;;;;;4764692;29;20249;-84
2021/06/26 00:54:45;;;;;;;1.50;0.70;;;15.20;1.00;;;;;;4765032;29;20189;-86
2021/06/26 00:57:09;;;;;;;1.30;0.57;;;15.70;1.00;;;;;;4764669;29;20318;-88
2021/06/26 00:59:33;;;;;;;2.03;0.80;;;15.60;1.00;;;;;;4767932;29;20200;-80
2021/06/26 01:01:55;;;;;;;1.17;0.50;;;15.60;1.00;;;;;;4781452;28;20189;-87
2021/06/26 01:04:18;;;;;;;2.67;1.10;;;;;;;;;;4783314;28;20193;-75
2021/06/26 01:06:40;;;;;;;1.43;0.60;;;15.60;2.80;;;;;;4783206;28;20181;-87
2021/06/26 01:09:03;;;;;;;1.33;0.63;;;;;;;;;;4779969;28;20212;-79
2021/06/26 01:11:26;;;;;;;0.80;0.40;;;;;;;;;;4763642;29;20228;-80
2021/06/26 01:13:50;;;;;;;0.60;0.27;;;15.50;70.80;;;;;;4778052;28;20255;-85
2021/06/26 01:16:13;;;;;;;2.63;1.00;;;15.70;90.80;;;;;;4783248;28;20192;-81
2021/06/26 01:18:35;;;;;;;1.43;0.60;;;15.60;98.60;;;;;;4782646;28;20188;-86
2021/06/26 01:20:58;;;;;;;1.70;0.73;;;;;;;;;;4764825;29;20193;-87
2021/06/26 01:23:24;;;;;;;2.33;0.93;;;15.90;99.90;;;;;;4763235;29;20193;-84
2021/06/26 01:25:46;;;;;;;0.43;0.30;;;15.80;99.90;;;;;;4776825;29;20666;-86
2021/06/26 01:28:09;;;;;;;2.70;1.10;;;15.80;88.10;;;;;;4781540;28;20531;-84
2021/06/26 01:30:33;;;;;;;1.67;0.60;;;15.50;98.00;;;;;;4768831;29;20195;-85
2021/06/26 01:32:56;;;;;;;1.07;0.50;;;16.00;99.90;;;;;;4781506;29;20655;-87
2021/06/26 01:35:19;;;;;;;2.37;0.93;;;15.80;99.90;;;;;;4781850;29;20188;-84
2021/06/26 01:37:42;;;;;;;1.60;0.70;;;16.10;99.90;;;;;;4783084;28;20245;-88
2021/06/26 01:40:08;;;;;;;1.17;0.50;;;16.60;97.60;;;;;;4781060;29;20205;-87
2021/06/26 01:42:31;;;;;;;1.83;0.80;;;15.90;96.90;;;;;;4782205;28;20688;-86
2021/06/26 01:44:54;;;;;;;0.80;0.40;;;;;;;;;;4781058;29;20256;-74
2021/06/26 01:47:16;;;;;;;3.13;1.27;;;16.30;89.20;;;;;;4779769;29;20288;-75
2021/06/26 01:49:40;;;;;;;1.50;0.77;;;16.20;51.60;;;;;;4751248;29;20277;-73
2021/06/26 01:52:03;;;;;;;1.67;0.80;;;;;;;;;;4764564;29;20260;-73
2021/06/26 01:54:26;;;;;;;0.90;0.40;;;16.20;52.10;;;;;;4780334;29;20255;-73
2021/06/26 01:56:50;;;;;;;1.17;0.47;;;16.00;57.20;;;;;;4777700;29;20734;-74
2021/06/26 01:59:13;;;;;;;1.90;0.80;;;16.40;52.60;;;;;;4745777;29;20214;-74
2021/06/26 02:01:37;;;;;;;1.40;0.60;;;15.60;77.20;;;;;;4761290;29;20240;-72
2021/06/26 02:04:00;;;;;;;1.67;0.67;;;16.20;79.90;;;;;;4763149;29;20185;-75
2021/06/26 02:06:22;;;;;;;3.30;1.20;;;16.40;77.20;;;;;;4763158;29;20193;-74
2021/06/26 02:08:45;;;;;;;1.27;0.57;;;;;;;;;;4781440;28;20216;-76
2021/06/26 02:11:08;;;;;;;1.87;0.77;;;16.00;45.00;;;;;;4781228;28;20647;-74
2021/06/26 02:13:32;;;;;;;1.40;0.60;;;16.40;29.20;;;;;;4771804;29;20209;-74
2021/06/26 02:15:54;;;;;;;1.17;0.50;;;16.10;55.20;;;;;;4763037;29;20213;-75
2021/06/26 02:18:17;;;;;;;2.90;1.13;;;;;;;;;;4762820;29;20182;-75
2021/06/26 02:20:40;;;;;;;1.17;0.60;;;16.70;38.90;;;;;;4766698;29;20197;-74
2021/06/26 02:23:02;;;;;;;1.23;0.60;;;16.70;31.00;;;;;;4781526;28;20246;-73
2021/06/26 02:25:25;;;;;;;2.20;0.93;;;;;;;;;;4779897;29;20201;-75
2021/06/26 02:27:47;;;;;;;0.77;0.40;;;16.40;29.60;;;;;;4780270;29;20212;-74
2021/06/26 02:30:15;;;;;;;3.07;1.23;;;16.80;12.40;;;;;;4766574;28;20270;-73
2021/06/26 02:32:38;;;;;;;2.10;0.73;;;16.50;1.10;;;;;;4780895;28;20264;-74
2021/06/26 02:35:01;;;;;;;1.03;0.43;;;;;;;;;;4780202;29;20685;-73
2021/06/26 02:37:24;;;;;;;3.07;1.27;;;16.30;16.20;;;;;;4779905;29;20208;-75
2021/06/26 02:39:47;;;;;;;1.47;0.60;;;17.10;1.40;;;;;;4780658;28;20244;-74
2021/06/26 02:42:09;;;;;;;2.97;1.20;;;16.60;15.50;;;;;;4779621;28;20197;-77
2021/06/26 02:44:32;;;;;;;1.67;0.67;;;16.50;13.90;;;;;;4783803;28;20197;-74
2021/06/26 02:46:56;;;;;;;1.57;0.77;;;16.50;1.00;;;;;;4783255;29;20291;-73
2021/06/26 02:49:19;;;;;;;2.40;1.07;;;16.60;1.00;;;;;;4777308;28;20264;-74
2021/06/26 02:51:42;;;;;;;1.50;0.70;;;15.80;1.00;;;;;;4764898;29;20197;-76
2021/06/26 02:54:05;;;;;;;1.40;0.60;;;;;;;;;;4764562;29;20289;-77
2021/06/26 02:56:27;;;;;;;0.97;0.53;;;16.40;1.00;;;;;;4765840;29;20194;-75
2021/06/26 02:58:50;;;;;;;1.60;0.67;;;;;;;;;;4766152;29;20268;-75
2021/06/26 03:01:13;;;;;;;3.13;1.13;;;16.80;1.00;;;;;;4762786;29;20198;-73
2021/06/26 03:03:37;;;;;;;1.93;0.73;;;16.50;1.00;;;;;;4764465;29;20201;-74
2021/06/26 03:05:59;;;;;;;1.10;0.40;;;16.70;1.00;;;;;;4765941;29;20585;-73
2021/06/26 03:08:22;;;;;;;2.30;0.83;;;16.80;1.00;;;;;;4777489;29;20717;-74
2021/06/26 03:10:45;;;;;;;1.17;0.47;;;16.40;1.00;;;;;;4782678;29;20260;-74
2021/06/26 03:13:08;;;;;;;1.63;0.63;;;;;;;;;;4782759;29;20345;-75
2021/06/26 03:15:32;;;;;;;1.63;0.60;;;;;;;;;;4783012;29;20192;-75
2021/06/26 03:17:55;;;;;;;1.30;0.60;;;;;;;;;;4774422;29;20656;-76
2021/06/26 03:20:18;;;;;;;2.13;0.90;;;16.60;1.00;;;;;;4765230;29;20222;-74
2021/06/26 03:22:41;;;;;;;1.40;0.60;;;;;;;;;;4765709;29;20217;-74
2021/06/26 03:25:05;;;;;;;1.70;0.70;;;16.60;1.00;;;;;;4795047;28;20200;-73
2021/06/26 03:27:28;;;;;;;0.93;0.40;;;;;;;;;;4784038;28;20188;-73
2021/06/26 03:29:50;;;;;;;1.23;0.60;;;16.00;1.00;;;;;;4784015;28;20217;-74
2021/06/26 03:32:13;;;;;;;3.03;1.27;;;;;;;;;;4779935;28;20232;-74
2021/06/26 03:34:35;;;;;;;1.77;0.73;;;16.70;1.00;;;;;;4765316;29;20872;-85
2021/06/26 03:36:59;;;;;;;1.67;0.70;;;16.70;1.00;;;;;;4765853;29;20181;-86
2021/06/26 03:39:23;;;;;;;2.73;1.07;;;17.00;1.00;;;;;;4764778;29;20193;-84
2021/06/26 03:41:46;;;;;;;0.77;0.30;;;;;;;;;;4766014;29;20323;-81
2021/06/26 03:44:08;;;;;;;1.27;0.53;;;17.10;1.00;;;;;;4766006;29;20193;-86
2021/06/26 03:46:31;;;;;;;1.80;0.63;;;;;;;;;;4764079;29;20272;-85
2021/06/26 03:48:54;;;;;;;2.20;0.73;;;;;;;;;;4748563;29;20198;-86
2021/06/26 03:51:16;;;;;;;2.90;1.20;;;16.30;1.00;;;;;;4764053;29;20237;-85
2021/06/26 03:53:40;;;;;;;1.63;0.70;;;17.20;1.00;;;;;;4764345;29;20241;-85
2021/06/26 03:56:03;;;;;;;1.03;0.50;;;;;;;;;;4778639;29;20208;-81
2021/06/26 03:58:27;;;;;;;0.70;0.37;;;17.00;1.00;;;;;;4784264;28;20607;-78
2021/06/26 04:00:50;;;;;;;1.43;0.60;;;17.00;1.00;;;;;;4781017;28;20259;-87
2021/06/26 04:03:15;;;;;;;2.93;1.07;;;;;;;;;;4781804;29;20205;-73
2021/06/26 04:05:38;;;;;;;1.53;0.60;;;17.60;1.00;;;;;;4781694;29;20209;-74
2021/06/26 04:08:00;;;;;;;1.40;0.60;;;17.30;1.00;;;;;;4783239;28;20863;-74
2021/06/26 04:10:26;;;;;;;4.27;1.60;;;17.00;1.00;;;;;;4782840;28;20211;-74
2021/06/26 04:13:09;;;;;;;2.83;1.00;;;17.40;1.00;;;;;;4773968;28;20532;-73
2021/06/26 04:15:52;;;;;;;1.37;0.63;;;17.30;1.00;;;;;;4763470;29;20208;-73
2021/06/26 04:18:34;;;;;;;1.10;0.50;;;17.80;1.00;;;;;;4763436;29;20185;-74
2021/06/26 04:21:17;;;;;;;3.33;1.23;;;16.80;1.00;;;;;;4763623;29;20201;-74
2021/06/26 04:24:00;;;;;;;2.77;1.07;;;17.30;1.00;;;;;;4777678;29;20204;-74
2021/06/26 04:26:44;;;;;;;1.53;0.60;;;17.20;1.00;;;;;;4781565;29;20192;-73
2021/06/26 04:29:06;;;;;;;0.87;0.40;;;;;;;;;;4781327;29;20208;-77
2021/06/26 04:31:29;;;;;;;1.23;0.57;;;16.80;1.00;;;;;;4765276;29;20665;-74
2021/06/26 04:33:52;;;;;;;1.40;0.60;;;;;;;;;;4781070;28;20193;-73
2021/06/26 04:36:14;;;;;;;2.43;0.97;;;17.50;1.00;;;;;;4765016;28;20198;-73
2021/06/26 04:38:37;;;;;;;1.90;0.70;;;;;;;;;;4746760;29;20712;-74
2021/06/26 04:41:00;;;;;;;2.00;0.80;;;17.80;1.00;;;;;;4764077;29;20190;-74
2021/06/26 04:43:24;;;;;;;3.10;1.27;;;18.00;1.00;;;;;;4772057;29;20679;-75
2021/06/26 04:45:47;;;;;;;0.80;0.37;;;18.20;99.90;;;;;;4781208;29;20193;-76
2021/06/26 04:48:10;;;;;;;3.30;1.13;;;18.20;99.90;;;;;;4782070;28;20228;-75
2021/06/26 04:50:35;;;;;;;1.63;0.70;;;;;;;;;;4766414;29;20228;-77
2021/06/26 04:52:58;;;;;;;2.07;0.80;;;18.30;1.00;;;;;;4759378;29;20563;-87
2021/06/26 04:55:21;;;;;;;2.50;1.03;;;;;;;;;;4763982;29;20198;-87
2021/06/26 04:57:44;;;;;;;1.77;0.70;;;;;;;;;;4765078;29;20302;-87
2021/06/26 05:00:12;;;;;;;1.27;0.53;;;19.00;99.90;;;;;;4780910;29;20205;-81
2021/06/26 05:02:34;;;;;;;2.53;0.97;;;18.60;1.00;;;;;;4776791;28;20637;-86
2021/06/26 05:04:57;;;;;;;1.37;0.67;;;20.10;1.00;;;;;;4763390;29;20187;-85
2021/06/26 05:07:19;;;;;;;3.07;1.10;;;18.60;99.90;;;;;;4761979;29;20746;-86
2021/06/26 05:09:42;;;;;;;2.13;0.90;;;18.80;1.00;;;;;;4765393;29;20250;-80
2021/06/26 05:12:06;;;;;;;1.70;0.70;;;18.80;99.90;;;;;;4763692;29;20258;-83
2021/06/26 05:14:29;;;;;;;0.83;0.30;;;18.90;1.00;;;;;;4764302;29;20194;-85
2021/06/26 05:16:53;;;;;;;2.87;0.90;;;18.90;99.90;;;;;;4780360;29;20539;-85
2021/06/26 05:19:15;;;;;;;3.37;1.30;;;;;;;;;;4775981;28;20190;-87
2021/06/26 05:21:38;;;;;;;1.60;0.70;;;19.80;99.90;;;;;;4762195;29;20206;-87
2021/06/26 05:24:01;;;;;;;1.23;0.50;;;19.30;99.90;;;;;;4782621;28;20216;-87
2021/06/26 05:26:23;;;;;;;2.57;1.13;;;19.20;1.00;;;;;;4780227;29;20206;-84
2021/06/26 05:28:46;;;;;;;1.73;0.70;;;;;;;;;;4779098;29;20552;-79
2021/06/26 05:31:09;;;;;;;2.77;0.97;;;18.60;1.00;;;;;;4746592;29;20233;-87
2021/06/26 05:33:33;;;;;;;2.00;0.70;;;19.10;99.90;;;;;;4762453;29;20749;-85
2021/06/26 05:35:55;;;;;;;1.87;0.77;;;19.50;12.10;;;;;;4777144;29;20250;-85
2021/06/26 05:38:18;;;;;;;3.10;1.10;;;;;;;;;;4764847;28;20711;-78
2021/06/26 05:40:40;;;;;;;0.73;0.37;;;19.40;1.00;;;;;;4763878;29;20270;-86
2021/06/26 05:43:03;;;;;;;1.33;0.53;;;20.80;99.90;;;;;;4763927;29;20187;-84
2021/06/26 05:45:26;;;;;;;0.60;0.30;;;;;;;;;;4770630;29;20226;-81
2021/06/26 05:47:48;;;;;;;1.20;0.50;;;20.00;99.90;;;;;;4764960;29;20228;-86
2021/06/26 05:50:13;;;;;;;3.67;1.30;;;20.20;1.00;;;;;;4782203;28;20193;-85
2021/06/26 05:52:45;;;;;;;1.80;0.73;;;20.10;1.00;;;;;;4781301;29;20203;-86
2021/06/26 05:55:08;;;;;;;1.43;0.57;;;20.10;1.00;;;;;;4781899;28;20728;-83
2021/06/26 05:57:30;;;;;;;1.87;0.73;;;20.40;99.90;;;;;;4782491;28;20194;-87
2021/06/26 05:59:53;;;;;;;1.60;0.60;;;;;;;;;;4778404;28;20183;-86
2021/06/26 06:02:16;;;;;;;3.97;1.30;;;;;;;;;;4762061;29;20574;-83
2021/06/26 06:04:39;;;;;;;1.43;0.60;;;;;;;;;;4797251;28;20214;-85
2021/06/26 06:07:03;;;;;;;1.33;0.57;;;19.80;1.00;;;;;;4782850;28;20238;-86
2021/06/26 06:09:26;;;;;;;0.80;0.37;;;;;;;;;;4782068;28;20242;-79
2021/06/26 06:11:48;;;;;;;0.87;0.40;;;20.40;1.00;;;;;;4762555;29;20258;-83
2021/06/26 06:14:11;;;;;;;3.47;1.17;;;20.20;1.00;;;;;;4763659;29;20192;-86
2021/06/26 06:16:35;;;;;;;1.80;0.67;;;20.40;99.90;;;;;;4764379;29;20192;-83
2021/06/26 06:18:58;;;;;;;2.17;0.87;;;;;;;;;;4767124;29;20192;-77
2021/06/26 06:21:22;;;;;;;3.40;1.37;;;19.90;1.00;;;;;;4778357;29;20270;-85
2021/06/26 06:23:46;;;;;;;2.27;0.80;;;20.30;1.00;;;;;;4784036;28;20230;-73
2021/06/26 06:26:09;;;;;;;2.67;0.90;;;19.80;1.00;;;;;;4784677;28;20192;-74
2021/06/26 06:28:31;;;;;;;1.40;0.63;;;19.80;1.00;;;;;;4767855;29;20201;-75
2021/06/26 06:30:54;;;;;;;1.67;0.70;;;20.50;1.00;;;;;;4773523;28;20272;-74
2021/06/26 06:33:16;;;;;;;3.43;1.23;;;;;;;;;;4764677;29;20212;-74
2021/06/26 06:35:39;;;;;;;1.70;0.70;;;19.80;1.00;;;;;;4748988;29;20255;-74
2021/06/26 06:38:02;;;;;;;1.03;0.43;;;;;;;;;;4764792;29;20203;-74
2021/06/26 06:40:26;;;;;;;3.67;1.30;;;20.70;1.00;;;;;;4771291;29;20219;-73
2021/06/26 06:42:49;;;;;;;1.43;0.60;;;20.30;1.00;;;;;;4784526;28;20193;-74
2021/06/26 06:45:12;;;;;;;3.50;1.23;;;20.70;1.00;;;;;;4764919;29;20212;-74
2021/06/26 06:47:35;;;;;;;1.90;0.70;;;;;;;;;;4766033;29;20231;-74
2021/06/26 06:49:58;;;;;;;1.47;0.70;;;20.20;99.90;;;;;;4764662;29;20205;-74
2021/06/26 06:52:21;;;;;;;2.17;0.90;;;20.50;1.00;;;;;;4775390;29;20225;-74
2021/06/26 06:54:43;;;;;;;1.50;0.63;;;21.20;99.90;;;;;;4753124;29;20212;-76
2021/06/26 06:57:08;;;;;;;1.10;0.50;;;20.90;47.30;;;;;;4764570;29;20207;-74
2021/06/26 06:59:31;;;;;;;2.37;0.90;;;20.50;1.00;;;;;;4783472;28;20259;-75
2021/06/26 07:01:54;;;;;;;1.83;0.70;;;;;;;;;;4781644;29;20587;-74
2021/06/26 07:04:16;;;;;;;3.53;1.33;;;21.00;1.00;;;;;;4768447;28;20775;-76
2021/06/26 07:06:39;;;;;;;1.70;0.70;;;21.00;1.00;;;;;;4749242;29;20731;-75
2021/06/26 07:09:02;;;;;;;2.63;1.03;;;;;;;;;;4765935;29;20266;-74
2021/06/26 07:11:26;;;;;;;3.80;1.43;;;21.20;1.00;;;;;;4783812;28;20214;-75
2021/06/26 07:13:50;;;;;;;1.23;0.47;;;21.40;1.00;;;;;;4784251;28;20192;-75
2021/06/26 07:16:13;;;;;;;1.97;0.77;;;;;;;;;;4782287;29;20199;-77
2021/06/26 07:18:35;;;;;;;1.60;0.60;;;22.10;99.90;;;;;;4782630;29;20265;-86
2021/06/26 07:20:58;;;;;;;2.23;0.80;;;21.80;99.90;;;;;;4783648;29;20193;-84
2021/06/26 07:23:21;;;;;;;1.67;0.70;;;22.30;99.90;;;;;;4784053;28;20197;-86
2021/06/26 07:25:43;;;;;;;2.07;0.80;;;22.40;68.40;;;;;;4781941;28;20198;-86
2021/06/26 07:28:06;;;;;;;1.20;0.50;;;;;;;;;;4765225;29;20228;-81
2021/06/26 07:30:30;;;;;;;1.23;0.57;;;22.70;21.30;;;;;;4766902;29;20343;-85
2021/06/26 07:32:53;;;;;;;1.80;0.67;;;;;;;;;;4764851;29;20252;-83
2021/06/26 07:35:16;;;;;;;4.37;1.43;;;22.60;1.00;;;;;;4764621;29;20208;-86
2021/06/26 07:37:41;;;;;;;1.63;0.57;;;23.30;1.00;;;;;;4766241;29;20602;-83
2021/06/26 07:40:05;;;;;;;1.10;0.50;;;23.80;1.00;;;;;;4764943;29;20770;-86
2021/06/26 07:42:28;;;;;;;1.40;0.57;;;;;;;;;;4768637;29;20216;-81
2021/06/26 07:44:51;;;;;;;1.97;0.67;;;23.10;99.90;;;;;;4779367;29;20208;-86
2021/06/26 07:47:15;;;;;;;3.33;1.13;;;23.70;1.00;;;;;;4783408;28;20303;-86
2021/06/26 07:49:38;;;;;;;2.27;0.70;;;;;;;;;;4779291;29;20330;-84
2021/06/26 07:52:00;;;;;;;1.67;0.70;;;24.30;1.00;;;;;;4772504;28;20213;-84
2021/06/26 07:54:23;;;;;;;3.90;1.47;;;24.20;1.00;;;;;;4765622;29;20233;-86
2021/06/26 07:56:47;;;;;;;1.63;0.60;;;24.30;1.00;;;;;;4764105;29;20741;-86
2021/06/26 07:59:10;;;;;;;3.47;1.07;;;;;;;;;;4763776;29;20664;-84
2021/06/26 08:01:33;;;;;;;2.03;0.70;;;23.50;1.00;;;;;;4771316;29;20232;-77
2021/06/26 08:03:57;;;;;;;2.17;0.77;;;23.60;1.00;;;;;;4784048;29;20251;-87
2021/06/26 08:06:20;;;;;;;3.93;1.23;;;;;;;;;;4782615;29;20594;-84
2021/06/26 08:08:42;;;;;;;1.67;0.60;;;;;;;;;;4782355;28;20244;-82
2021/06/26 08:11:05;;;;;;;1.67;0.70;;;23.70;1.00;;;;;;4782610;29;20260;-85
2021/06/26 08:13:28;;;;;;;1.23;0.53;;;;;;;;;;4766749;29;20655;-86
2021/06/26 08:15:51;;;;;;;1.87;0.70;;;;;;;;;;4782542;29;20227;-86
2021/06/26 08:18:14;;;;;;;4.00;1.30;;;23.20;1.00;;;;;;4771572;29;20202;-86
2021/06/26 08:20:39;;;;;;;1.47;0.50;;;23.60;1.00;;;;;;4763892;29;20194;-82
2021/06/26 08:23:02;;;;;;;1.97;0.73;;;23.60;1.00;;;;;;4749604;29;20233;-85
2021/06/26 08:25:25;;;;;;;4.43;1.43;;;23.00;1.00;;;;;;4774508;29;20223;-81
2021/06/26 08:27:48;;;;;;;1.03;0.40;;;;;;;;;;4797430;28;20204;-76
2021/06/26 08:30:11;;;;;;;4.23;1.20;;;23.90;1.00;;;;;;4782651;28;20189;-80
2021/06/26 08:32:33;;;;;;;2.20;0.77;;;24.20;1.00;;;;;;4782162;28;20209;-79
2021/06/26 08:34:56;;;;;;;2.47;0.90;;;;;;;;;;4772375;28;20190;-84
2021/06/26 08:37:20;;;;;;;3.97;1.27;;;23.70;1.00;;;;;;4780756;29;20225;-82
2021/06/26 08:42:23;;;;;;;27.73;7.83;;;24.10;1.00;;;;;;4547360;26;20224;-83
2021/06/26 08:44:48;;;;;;;5.00;1.57;;;24.80;1.00;;;;;;4775852;28;20237;-87
2021/06/26 08:47:11;;;;;;;2.53;0.70;;;;;;;;;;4771045;28;20210;-84
2021/06/26 08:49:33;;;;;;;2.50;0.90;;;;;;;;;;4783059;28;20647;-80
2021/06/26 08:51:57;;;;;;;3.77;1.10;;;;;;;;;;4768535;28;20222;-82
2021/06/26 08:54:21;;;;;;;4.97;1.60;;;25.50;1.00;;;;;;4780988;28;20190;-77
2021/06/26 08:56:47;;;;;;;6.23;1.80;;;25.50;1.00;;;;;;4779447;29;20565;-74
2021/06/26 08:59:10;;;;;;;2.23;0.77;;;;;;;;;;4796756;28;20237;-80
2021/06/26 09:01:35;;;;;;;4.20;1.27;;;26.20;1.00;;;;;;4789338;28;20243;-78
2021/06/26 09:04:03;;;;;;;4.13;1.20;;;26.20;1.00;;;;;;4779366;28;20611;-84
2021/06/26 09:06:27;;;;;;;4.37;1.33;;;;;;;;;;4781071;28;20197;-81
2021/06/26 09:08:51;;;;;;;4.00;1.30;;;25.20;1.00;;;;;;4796267;28;20909;-82
2021/06/26 09:11:19;;;;;;;4.83;1.47;;;24.70;1.00;;;;;;4779412;28;20202;-76
2021/06/26 09:13:42;;;;;;;4.53;1.50;;;24.40;1.00;;;;;;4794963;28;20697;-85
2021/06/26 09:16:06;;;;;;;3.40;1.13;;;23.80;1.00;;;;;;4780893;28;20918;-83
2021/06/26 09:18:28;;;;;;;3.23;1.10;;;23.20;1.00;;;;;;4780426;28;20259;-79
2021/06/26 09:20:53;;;;;;;4.60;1.63;;;;;;;;;;4779510;28;20245;-79
2021/06/26 09:23:22;;;;;;;2.37;0.90;;;22.50;1.00;;;;;;4779377;29;20196;-80
2021/06/26 09:25:45;;;;;;;4.73;1.57;;;22.30;99.90;;;;;;4780548;28;20717;-78
2021/06/26 09:28:10;;;;;;;2.53;0.87;;;22.00;1.00;;;;;;4780601;28;20197;-80
2021/06/26 09:30:34;;;;;;;4.00;1.30;;;21.90;1.00;;;;;;4779807;28;20235;-78
2021/06/26 09:32:58;;;;;;;7.00;2.40;;;;;;;;;;4779916;28;20220;-76
2021/06/26 09:35:20;;;;;;;3.43;1.20;;;;;;;;;;4779173;28;20199;-71
2021/06/26 09:37:43;;;;;;;3.50;1.13;;;21.40;99.90;;;;;;4779004;29;20208;-72
2021/06/26 09:40:07;;;;;;;2.53;0.90;;;21.90;99.90;;;;;;4780011;28;20232;-77
2021/06/26 09:42:31;;;;;;;2.90;0.93;;;21.90;99.90;;;;;;4780024;28;20207;-79
2021/06/26 09:44:58;;;;;;;5.67;1.90;;;21.90;99.90;;;;;;4779905;28;20664;-74
2021/06/26 09:47:31;;;;;;;3.40;1.17;;;21.90;99.90;;;;;;4780242;28;20198;-73
2021/06/26 09:49:54;;;;;;;4.60;1.47;;;;;;;;;;4767138;29;20260;-72
2021/06/26 09:52:16;;;;;;;7.47;2.40;;;22.10;1.00;;;;;;4780988;28;20185;-72
2021/06/26 09:54:39;;;;;;;4.07;1.40;;;;;;;;;;4783541;28;20194;-73
2021/06/26 09:57:03;;;;;;;5.87;1.87;;;;;;;;;;4783948;28;20204;-74
2021/06/26 09:59:33;;;;;;;2.83;1.03;;;22.80;99.90;;;;;;4783934;28;20243;-78
2021/06/26 10:01:58;;;;;;;4.70;1.53;;;23.10;99.90;;;;;;4781430;28;20247;-73
2021/06/26 10:04:21;;;;;;;2.50;0.90;;;;;;;;;;4780842;29;20374;-74
2021/06/26 10:06:45;;;;;;;3.33;1.10;;;24.30;1.00;;;;;;4765654;29;20764;-74
2021/06/26 10:09:07;;;;;;;4.03;1.27;;;;;;;;;;4783664;28;20213;-73
2021/06/26 10:11:31;;;;;;;2.93;0.97;;;25.00;1.00;;;;;;4783543;28;20217;-73
2021/06/26 10:13:54;;;;;;;6.60;2.00;;;25.20;1.00;;;;;;4782004;29;20722;-74
2021/06/26 10:16:18;;;;;;;3.23;1.00;;;24.90;1.00;;;;;;4782125;28;20206;-74
2021/06/26 10:18:43;;;;;;;3.60;1.13;;;25.40;1.00;;;;;;4783422;28;20192;-77
2021/06/26 10:21:09;;;;;;;5.43;1.77;;;25.70;1.00;;;;;;4783042;28;20239;-81
2021/06/26 10:23:33;;;;;;;2.00;0.77;;;25.50;1.00;;;;;;4783430;28;20210;-76
2021/06/26 10:25:59;;;;;;;5.87;1.83;;;25.50;1.00;;;;;;4783635;28;20194;-76
2021/06/26 10:28:22;;;;;;;2.50;0.80;;;26.00;1.00;;;;;;4783670;28;20590;-76
2021/06/26 10:30:58;;;;;;;3.57;1.17;;;25.70;1.00;;;;;;4783679;28;20247;-75
2021/06/26 10:33:26;;;;;;;4.20;1.23;;;25.80;1.00;;;;;;4764889;29;20696;-74
2021/06/26 10:35:56;;;;;;;2.90;0.97;;;25.90;1.00;;;;;;4765313;29;20275;-75
2021/06/26 10:38:19;;;;;;;4.03;1.17;;;;;;;;;;4770887;29;20191;-77
2021/06/26 10:40:44;;;;;;;4.07;1.20;;;25.80;1.00;;;;;;4764944;29;20232;-80
2021/06/26 10:43:24;;;;;;;5.63;1.60;;;27.40;1.00;;;;;;4782313;28;20231;-77
2021/06/26 10:45:48;;;;;;;5.07;1.20;;;;;;;;;;4782479;28;20661;-77
2021/06/26 10:48:19;;;;;;;4.73;0.90;;;31.60;1.00;;;;;;4783456;28;20189;-75
2021/06/26 10:50:46;;;;;;;7.17;1.37;;;32.30;99.90;;;;;;4782768;28;20192;-75
2021/06/26 10:53:10;;;;;;;2.37;0.43;;;32.80;99.90;;;;;;4781813;29;20316;-79
2021/06/26 10:55:35;;;;;;;3.20;0.73;;;33.40;99.90;;;;;;4783829;28;20193;-77
2021/06/26 10:57:59;;;;;;;9.63;1.70;;;34.50;99.90;;;;;;4783523;28;20213;-80
2021/06/26 11:00:32;;;;;;;5.63;0.98;;;35.30;1.00;;;;;;4783431;28;20196;-80
2021/06/26 11:02:54;;;;;;;10.85;1.80;;;35.70;1.00;;;;;;4769664;28;20648;-84
2021/06/26 11:05:28;;;;;;;5.15;0.93;;;36.50;1.00;;;;;;4765496;29;20196;-79
2021/06/26 11:07:51;;;;;;;5.68;0.90;;;;;;;;;;4765309;29;20209;-80
2021/06/26 11:10:15;;;;;;;6.22;0.95;;;39.20;1.00;;;;;;4777322;29;20260;-84
2021/06/26 11:12:41;;;;;;;8.25;1.20;;;40.80;1.00;;;;;;4783755;28;20546;-82
2021/06/26 11:15:04;;;;;;;18.63;2.42;;;42.00;99.90;;;;;;4783856;28;20220;-82
2021/06/26 11:17:35;;;;;;;6.93;0.93;;;43.40;99.90;;;;;;4783826;28;20200;-81
2021/06/26 11:19:59;;;;;;;18.58;2.35;;;43.70;1.00;;;;;;4782421;28;20221;-73
2021/06/26 11:22:22;;;;;;;7.25;1.02;;;;;;;;;;4783111;28;20259;-77
2021/06/26 11:24:46;;;;;;;8.75;1.27;;;44.60;99.90;;;;;;4782990;28;20220;-72
2021/06/26 11:27:14;;;;;;;19.65;2.55;;;44.80;1.00;;;;;;4783861;28;20232;-82
2021/06/26 11:29:38;;;;;;;8.52;1.23;;;43.90;99.90;;;;;;4783371;28;20192;-85
2021/06/26 11:32:03;;;;;;;17.35;2.33;;;43.60;1.00;;;;;;4783922;28;20251;-83
2021/06/26 11:34:26;;;;;;;9.57;1.40;;;43.80;1.00;;;;;;4783601;28;20639;-82
2021/06/26 11:37:07;;;;;;;7.45;1.08;;;42.70;1.00;;;;;;4783374;28;20197;-80
2021/06/26 11:39:30;;;;;;;8.48;1.20;;;41.40;1.00;;;;;;4783788;28;20259;-84
2021/06/26 11:41:53;;;;;;;6.60;0.95;;;;;;;;;;4783452;28;20240;-81
2021/06/26 11:44:17;;;;;;;7.95;1.17;;;37.60;99.90;;;;;;4783864;28;20279;-86
2021/06/26 11:46:39;;;;;;;14.48;2.00;;;36.00;1.00;;;;;;4782772;28;20224;-85
2021/06/26 11:49:02;;;;;;;14.07;1.90;;;35.60;1.00;;;;;;4784089;28;20204;-86
2021/06/26 11:51:25;;;;;;;8.07;1.17;;;;;;;;;;4783463;28;20197;-87
2021/06/26 11:53:50;;;;;;;5.32;0.90;;;33.40;99.90;;;;;;4783714;28;20196;-73
2021/06/26 11:56:16;;;;;;;3.92;0.57;;;32.90;1.00;;;;;;4780990;28;20260;-72
2021/06/26 11:58:40;;;;;;;7.90;1.30;;;31.70;99.90;;;;;;4782170;28;20193;-74
2021/06/26 12:01:04;;;;;;;15.18;2.22;;;31.10;1.00;;;;;;4780358;28;20239;-74
2021/06/26 12:03:27;;;;;;;6.95;1.08;;;;;;;;;;4782393;28;20240;-73
2021/06/26 12:06:00;;;;;;;6.57;1.10;;;29.90;1.00;;;;;;4765225;29;20201;-74
2021/06/26 12:08:22;;;;;;;4.20;0.68;;;29.10;1.00;;;;;;4782884;28;20243;-74
2021/06/26 12:10:47;;;;;;;5.97;0.98;;;28.60;99.90;;;;;;4782634;28;20212;-74
2021/06/26 12:13:12;;;;;;;5.63;0.90;;;28.20;99.90;;;;;;4781544;28;20672;-74
2021/06/26 12:15:35;;;;;;;5.00;0.82;;;27.50;1.00;;;;;;4781328;28;20248;-74
2021/06/26 12:18:08;;;;;;;11.83;1.73;;;27.80;1.00;;;;;;4782155;28;20193;-75
2021/06/26 12:20:35;;;;;;;6.47;1.05;;;27.70;99.90;;;;;;4780968;29;20764;-74
2021/06/26 12:23:04;;;;;;;11.57;1.73;;;27.70;99.90;;;;;;4782447;28;20248;-74
2021/06/26 12:25:36;;;;;;;5.50;0.93;;;28.50;99.90;;;;;;4782415;28;20215;-77
2021/06/26 12:28:00;;;;;;;12.00;1.83;;;29.50;99.90;;;;;;4782001;28;20250;-78
2021/06/26 12:30:23;;;;;;;15.27;2.35;;;;;;;;;;4764138;29;20201;-77
2021/06/26 12:32:47;;;;;;;6.43;1.10;;;33.60;1.00;;;;;;4782380;28;20650;-75
2021/06/26 12:35:13;;;;;;;6.63;1.13;;;34.50;99.90;;;;;;4781513;28;20236;-76
2021/06/26 12:37:37;;;;;;;5.22;0.88;;;35.40;99.90;;;;;;4781997;28;20193;-76
2021/06/26 12:40:06;;;;;;;8.73;1.38;;;35.60;1.00;;;;;;4781708;28;20697;-75
2021/06/26 12:42:28;;;;;;;7.10;1.15;;;35.10;1.00;;;;;;4781951;28;20283;-77
2021/06/26 12:44:56;;;;;;;3.53;0.60;;;34.90;99.90;;;;;;4779695;28;20256;-76
2021/06/26 12:47:22;;;;;;;7.97;1.27;;;33.80;1.00;;;;;;4782459;28;20236;-73
2021/06/26 12:49:48;;;;;;;6.30;1.05;;;34.00;1.00;;;;;;4782450;28;20843;-74
2021/06/26 12:52:15;;;;;;;6.03;1.00;;;33.80;99.90;;;;;;4780965;28;20348;-78
2021/06/26 12:54:48;;;;;;;6.03;1.00;;;33.60;99.90;;;;;;4782019;28;20244;-75
2021/06/26 12:57:11;;;;;;;3.85;0.68;;;;;;;;;;4763518;29;20257;-80
2021/06/26 12:59:34;;;;;;;5.82;0.95;;;33.40;1.00;;;;;;4762421;29;20201;-74
2021/06/26 13:01:57;;;;;;;11.50;1.83;;;;;;;;;;4764146;28;20278;-75
2021/06/26 13:04:22;;;;;;;8.18;1.33;;;32.50;99.90;;;;;;4781564;28;20223;-76